Costa Pacifica — ICJA — position and weather

sailwx.info

Track history (hours):
 
Tides and Currents Weather Stations Pressure Air Temp Water Temp Dewpoint Dewpoint Depression Visibility Wind Speed Wind Dir Waves Ship Positions

Costa Pacifica

Last reported at 2018-May-27 07:58 UTC. Time now 2018-May-27 08:14 UTC.
Position N 41°21' E 002°10'.

Length 290 m; draft 8.3 m.

Type: Passenger vessel. MMSI: 247258100.

Date/timePositionNaut miles runAvg speedWind from/ knotsBaromVisibWave heightAir tempDewpointWater temp
2018-May-27 07:58N 41°21' E 002°10'0 0.0
2018-May-27 07:28N 41°21' E 002°10'0 0.0
2018-May-27 07:00N 41°21' E 002°10'0 0.0
2018-May-27 06:30N 41°21' E 002°10'0 0.0
2018-May-27 06:00N 41°21' E 002°10'0 0.0
2018-May-27 05:30N 41°21' E 002°10'0 0.4
2018-May-27 05:00N 41°21' E 002°10'2 4.6
2018-May-27 04:30N 41°19' E 002°10'714.5
2018-May-27 04:00N 41°13' E 002°17'713.4
2018-May-27 03:30N 41°10' E 002°24'8610.7
2018-May-26 19:26N 42°05' E 003°54'612.8
2018-May-26 19:00N 42°09' E 003°58'2712.3
2018-May-26 16:48N 42°30' E 004°21'412.3
2018-May-26 16:30N 42°33' E 004°24'612.3
2018-May-26 16:00N 42°38' E 004°30'612.3
2018-May-26 15:30N 42°43' E 004°35'612.7
2018-May-26 15:00N 42°47' E 004°40'1112.5
2018-May-26 14:06N 42°56' E 004°50'212.1
2018-May-26 13:57N 42°58' E 004°52'611.9
2018-May-26 13:29N 43°02' E 004°56'612.1
2018-May-26 13:00N 43°07' E 005°02'612.4
2018-May-26 12:30N 43°11' E 005°07'612.5
2018-May-26 12:00N 43°16' E 005°12'611.7
2018-May-26 11:30N 43°20' E 005°18'1 2.7
2018-May-26 10:59N 43°21' E 005°20'0 0.0
2018-May-26 10:29N 43°21' E 005°20'0 0.0
2018-May-26 09:58N 43°21' E 005°20'0 0.0
2018-May-26 09:28N 43°21' E 005°20'0 0.0
2018-May-26 08:58N 43°21' E 005°20'0 0.0
2018-May-26 08:28N 43°21' E 005°20'0 0.0
2018-May-26 08:00N 43°21' E 005°20'0 0.0
2018-May-26 07:27N 43°21' E 005°20'0 0.0
2018-May-26 07:00N 43°21' E 005°20'0 0.0
2018-May-26 06:30N 43°21' E 005°20'0 0.0
2018-May-26 05:30N 43°21' E 005°20'2 3.3
2018-May-26 05:00N 43°21' E 005°18'5 9.1
2018-May-26 04:30N 43°18' E 005°13'916.5
2018-May-26 03:59N 43°10' E 005°19'1219.2
2018-May-26 03:23N 43°04' E 005°32'719.5
2018-May-26 03:00N 43°00' E 005°41'1019.7
2018-May-26 02:30N 42°56' E 005°53'1715.0
2018-May-26 01:21N 42°52' E 006°16'614.2
2018-May-26 00:54N 42°53' E 006°24'614.4
2018-May-26 00:30N 42°55' E 006°31'714.7
2018-May-26 00:00N 42°59' E 006°40'714.6
2018-May-25 23:30N 43°04' E 006°48'714.5
2018-May-25 23:00N 43°08' E 006°55'714.2
2018-May-25 22:30N 43°12' E 007°03'714.1
2018-May-25 22:00N 43°17' E 007°11'714.4
2018-May-25 21:30N 43°21' E 007°19'714.4
2018-May-25 21:00N 43°25' E 007°27'714.3
2018-May-25 20:30N 43°30' E 007°35'714.3
2018-May-25 20:00N 43°34' E 007°43'714.4
2018-May-25 19:30N 43°38' E 007°51'714.4
2018-May-25 19:00N 43°42' E 007°59'713.9
2018-May-25 18:30N 43°47' E 008°06'714.0
2018-May-25 18:00N 43°51' E 008°14'713.9
2018-May-25 17:30N 43°56' E 008°20'714.0
2018-May-25 17:01N 44°02' E 008°25'713.7
2018-May-25 16:30N 44°08' E 008°30'713.3
2018-May-25 16:00N 44°14' E 008°33'510.2
2018-May-25 15:30N 44°19' E 008°31'1 1.9
2018-May-25 14:59N 44°19' E 008°29'0 0.0
2018-May-25 14:28N 44°19' E 008°29'0 0.0
2018-May-25 13:58N 44°19' E 008°29'0 0.0
2018-May-25 13:28N 44°19' E 008°29'0 0.0
2018-May-25 12:58N 44°19' E 008°29'0 0.0
2018-May-25 12:31N 44°19' E 008°29'0 0.0
2018-May-25 12:00N 44°19' E 008°29'0 0.0
2018-May-25 11:30N 44°19' E 008°29'0 0.0
2018-May-25 11:00N 44°19' E 008°29'0 0.0
2018-May-25 10:27N 44°19' E 008°29'0 0.0
2018-May-25 09:59N 44°19' E 008°29'0 0.0
2018-May-25 09:29N 44°19' E 008°29'0 0.0
2018-May-25 08:59N 44°19' E 008°29'0 0.0
2018-May-25 08:29N 44°19' E 008°29'0 0.0
2018-May-25 07:56N 44°19' E 008°29'0 0.0
2018-May-25 07:28N 44°19' E 008°29'0 0.0
2018-May-25 06:58N 44°19' E 008°29'0 0.0
2018-May-25 06:28N 44°19' E 008°29'1 1.2
2018-May-25 06:00N 44°19' E 008°30'4 7.6
2018-May-25 05:30N 44°16' E 008°34'714.2
2018-May-25 05:01N 44°10' E 008°39'917.2
2018-May-25 04:31N 44°03' E 008°45'918.0
2018-May-25 04:00N 43°55' E 008°52'918.0
2018-May-25 03:31N 43°48' E 008°58'816.8
2018-May-25 03:01N 43°44' E 009°09'815.3
2018-May-25 02:30N 43°37' E 009°13'917.8
2018-May-25 02:00N 43°28' E 009°16'918.5
2018-May-25 01:31N 43°21' E 009°22'918.0
2018-May-25 01:00N 43°13' E 009°29'918.3
2018-May-25 00:31N 43°05' E 009°36'918.2
2018-May-25 00:00N 42°57' E 009°40'918.2
2018-May-24 23:30N 42°49' E 009°47'918.5
2018-May-24 23:01N 42°44' E 009°58'1418.3
2018-May-24 22:13N 42°37' E 010°15'418.2
2018-May-24 22:00N 42°35' E 010°19'918.4
2018-May-24 21:30N 42°29' E 010°28'918.3
2018-May-24 21:00N 42°23' E 010°38'917.9
2018-May-24 20:30N 42°17' E 010°47'917.7
2018-May-24 20:00N 42°11' E 010°56'917.1
2018-May-24 19:31N 42°08' E 011°06'1717.9
2018-May-24 18:33N 42°06' E 011°29'117.6
2018-May-24 18:29N 42°06' E 011°31'123 5.5
2018-May-23 20:20N 40°40' E 013°27'917.8
2018-May-23 19:48N 40°37' E 013°39'517.8
2018-May-23 19:30N 40°35' E 013°45'917.6
2018-May-23 19:00N 40°32' E 013°57'1717.6
2018-May-23 18:03N 40°29' E 014°18'118.0
2018-May-23 18:00N 40°30' E 014°19'918.0
2018-May-23 17:29N 40°32' E 014°31'10 0.8
2018-May-23 04:49N 40°37' E 014°42'310.0
2018-May-23 04:30N 40°34' E 014°42'610.9
2018-May-23 03:59N 40°28' E 014°42'613.1
2018-May-23 03:30N 40°22' E 014°42'612.9
2018-May-23 03:00N 40°15' E 014°42'612.5
2018-May-23 02:30N 40°09' E 014°45'  
2018-May-20 05:25N 38°42' E 011°59'613.3
2018-May-20 04:59N 38°47' E 012°01'409 8.8
2018-May-18 06:18N 38°60' E 003°16'412.7
2018-May-18 06:00N 38°60' E 003°11'612.8
2018-May-18 05:30N 39°01' E 003°03'612.8
2018-May-18 05:00N 39°01' E 002°55'712.9
2018-May-18 04:30N 39°03' E 002°47'612.9
2018-May-18 04:00N 39°04' E 002°38'713.1
2018-May-18 03:30N 39°05' E 002°30'713.1
2018-May-18 03:00N 39°06' E 002°22'713.4
2018-May-18 02:29N 39°07' E 002°13'613.2
2018-May-18 01:59N 39°09' E 002°05'10811.9
2018-May-17 16:54N 39°26' W 000°13'4 9.6
2018-May-17 16:30N 39°26' W 000°18'1 2.9
2018-May-17 16:00N 39°27' W 000°19'0 0.0
2018-May-17 15:30N 39°27' W 000°19'0 0.0
2018-May-17 15:00N 39°27' W 000°19'0 0.0
2018-May-17 14:30N 39°27' W 000°19'0 0.0
2018-May-17 13:59N 39°27' W 000°19'0 0.0
2018-May-17 13:29N 39°27' W 000°19'0 0.0
2018-May-17 12:59N 39°27' W 000°19'0 0.0
2018-May-17 12:29N 39°27' W 000°19'0 0.0
2018-May-17 11:55N 39°27' W 000°19'0 0.0
2018-May-17 11:28N 39°27' W 000°19'0 0.0
2018-May-17 10:58N 39°27' W 000°19'0 0.0
2018-May-17 10:28N 39°27' W 000°19'0 0.0
2018-May-17 09:52N 39°27' W 000°19'0 0.0
2018-May-17 09:27N 39°27' W 000°19'0 0.0
2018-May-17 08:57N 39°27' W 000°19'0 0.0
2018-May-17 08:30N 39°27' W 000°19'0 0.0
2018-May-17 08:00N 39°27' W 000°19'  
Track history (hours):
 
Tides and Currents Weather Stations Pressure Air Temp Water Temp Dewpoint Dewpoint Depression Visibility Wind Speed Wind Dir Waves Ship Positions

Costa Pacifica

Last reported at 2018-May-27 07:58 UTC. Time now 2018-May-27 08:14 UTC.
Position N 41°21' E 002°10'.

Length 290 m; draft 8.3 m.

Type: Passenger vessel. MMSI: 247258100.

Date/timePositionNaut miles runAvg speedWind from/ knotsBaromVisibWave heightAir tempDewpointWater temp
2018-May-27 07:58N 41°21' E 002°10'0 0.0
2018-May-27 07:28N 41°21' E 002°10'0 0.0
2018-May-27 07:00N 41°21' E 002°10'0 0.0
2018-May-27 06:30N 41°21' E 002°10'0 0.0
2018-May-27 06:00N 41°21' E 002°10'0 0.0
2018-May-27 05:30N 41°21' E 002°10'0 0.4
2018-May-27 05:00N 41°21' E 002°10'2 4.6
2018-May-27 04:30N 41°19' E 002°10'714.5
2018-May-27 04:00N 41°13' E 002°17'713.4
2018-May-27 03:30N 41°10' E 002°24'8610.7
2018-May-26 19:26N 42°05' E 003°54'612.8
2018-May-26 19:00N 42°09' E 003°58'2712.3
2018-May-26 16:48N 42°30' E 004°21'412.3
2018-May-26 16:30N 42°33' E 004°24'612.3
2018-May-26 16:00N 42°38' E 004°30'612.3
2018-May-26 15:30N 42°43' E 004°35'612.7
2018-May-26 15:00N 42°47' E 004°40'1112.5
2018-May-26 14:06N 42°56' E 004°50'212.1
2018-May-26 13:57N 42°58' E 004°52'611.9
2018-May-26 13:29N 43°02' E 004°56'612.1
2018-May-26 13:00N 43°07' E 005°02'612.4
2018-May-26 12:30N 43°11' E 005°07'612.5
2018-May-26 12:00N 43°16' E 005°12'611.7
2018-May-26 11:30N 43°20' E 005°18'1 2.7
2018-May-26 10:59N 43°21' E 005°20'0 0.0
2018-May-26 10:29N 43°21' E 005°20'0 0.0
2018-May-26 09:58N 43°21' E 005°20'0 0.0
2018-May-26 09:28N 43°21' E 005°20'0 0.0
2018-May-26 08:58N 43°21' E 005°20'0 0.0
2018-May-26 08:28N 43°21' E 005°20'0 0.0
2018-May-26 08:00N 43°21' E 005°20'0 0.0
2018-May-26 07:27N 43°21' E 005°20'0 0.0
2018-May-26 07:00N 43°21' E 005°20'0 0.0
2018-May-26 06:30N 43°21' E 005°20'0 0.0
2018-May-26 05:30N 43°21' E 005°20'2 3.3
2018-May-26 05:00N 43°21' E 005°18'5 9.1
2018-May-26 04:30N 43°18' E 005°13'916.5
2018-May-26 03:59N 43°10' E 005°19'1219.2
2018-May-26 03:23N 43°04' E 005°32'719.5
2018-May-26 03:00N 43°00' E 005°41'1019.7
2018-May-26 02:30N 42°56' E 005°53'1715.0
2018-May-26 01:21N 42°52' E 006°16'614.2
2018-May-26 00:54N 42°53' E 006°24'614.4
2018-May-26 00:30N 42°55' E 006°31'714.7
2018-May-26 00:00N 42°59' E 006°40'714.6
2018-May-25 23:30N 43°04' E 006°48'714.5
2018-May-25 23:00N 43°08' E 006°55'714.2
2018-May-25 22:30N 43°12' E 007°03'714.1
2018-May-25 22:00N 43°17' E 007°11'714.4
2018-May-25 21:30N 43°21' E 007°19'714.4
2018-May-25 21:00N 43°25' E 007°27'714.3
2018-May-25 20:30N 43°30' E 007°35'714.3
2018-May-25 20:00N 43°34' E 007°43'714.4
2018-May-25 19:30N 43°38' E 007°51'714.4
2018-May-25 19:00N 43°42' E 007°59'713.9
2018-May-25 18:30N 43°47' E 008°06'714.0
2018-May-25 18:00N 43°51' E 008°14'713.9
2018-May-25 17:30N 43°56' E 008°20'714.0
2018-May-25 17:01N 44°02' E 008°25'713.7
2018-May-25 16:30N 44°08' E 008°30'713.3
2018-May-25 16:00N 44°14' E 008°33'510.2
2018-May-25 15:30N 44°19' E 008°31'1 1.9
2018-May-25 14:59N 44°19' E 008°29'0 0.0
2018-May-25 14:28N 44°19' E 008°29'0 0.0
2018-May-25 13:58N 44°19' E 008°29'0 0.0
2018-May-25 13:28N 44°19' E 008°29'0 0.0
2018-May-25 12:58N 44°19' E 008°29'0 0.0
2018-May-25 12:31N 44°19' E 008°29'0 0.0
2018-May-25 12:00N 44°19' E 008°29'0 0.0
2018-May-25 11:30N 44°19' E 008°29'0 0.0
2018-May-25 11:00N 44°19' E 008°29'0 0.0
2018-May-25 10:27N 44°19' E 008°29'0 0.0
2018-May-25 09:59N 44°19' E 008°29'0 0.0
2018-May-25 09:29N 44°19' E 008°29'0 0.0
2018-May-25 08:59N 44°19' E 008°29'0 0.0
2018-May-25 08:29N 44°19' E 008°29'0 0.0
2018-May-25 07:56N 44°19' E 008°29'0 0.0
2018-May-25 07:28N 44°19' E 008°29'0 0.0
2018-May-25 06:58N 44°19' E 008°29'0 0.0
2018-May-25 06:28N 44°19' E 008°29'1 1.2
2018-May-25 06:00N 44°19' E 008°30'4 7.6
2018-May-25 05:30N 44°16' E 008°34'714.2
2018-May-25 05:01N 44°10' E 008°39'917.2
2018-May-25 04:31N 44°03' E 008°45'918.0
2018-May-25 04:00N 43°55' E 008°52'918.0
2018-May-25 03:31N 43°48' E 008°58'816.8
2018-May-25 03:01N 43°44' E 009°09'815.3
2018-May-25 02:30N 43°37' E 009°13'917.8
2018-May-25 02:00N 43°28' E 009°16'918.5
2018-May-25 01:31N 43°21' E 009°22'918.0
2018-May-25 01:00N 43°13' E 009°29'918.3
2018-May-25 00:31N 43°05' E 009°36'918.2
2018-May-25 00:00N 42°57' E 009°40'918.2
2018-May-24 23:30N 42°49' E 009°47'918.5
2018-May-24 23:01N 42°44' E 009°58'1418.3
2018-May-24 22:13N 42°37' E 010°15'418.2
2018-May-24 22:00N 42°35' E 010°19'918.4
2018-May-24 21:30N 42°29' E 010°28'918.3
2018-May-24 21:00N 42°23' E 010°38'917.9
2018-May-24 20:30N 42°17' E 010°47'917.7
2018-May-24 20:00N 42°11' E 010°56'917.1
2018-May-24 19:31N 42°08' E 011°06'1717.9
2018-May-24 18:33N 42°06' E 011°29'117.6
2018-May-24 18:29N 42°06' E 011°31'123 5.5
2018-May-23 20:20N 40°40' E 013°27'917.8
2018-May-23 19:48N 40°37' E 013°39'517.8
2018-May-23 19:30N 40°35' E 013°45'917.6
2018-May-23 19:00N 40°32' E 013°57'1717.6
2018-May-23 18:03N 40°29' E 014°18'118.0
2018-May-23 18:00N 40°30' E 014°19'918.0
2018-May-23 17:29N 40°32' E 014°31'10 0.8
2018-May-23 04:49N 40°37' E 014°42'310.0
2018-May-23 04:30N 40°34' E 014°42'610.9
2018-May-23 03:59N 40°28' E 014°42'613.1
2018-May-23 03:30N 40°22' E 014°42'612.9
2018-May-23 03:00N 40°15' E 014°42'612.5
2018-May-23 02:30N 40°09' E 014°45'  
2018-May-20 05:25N 38°42' E 011°59'613.3
2018-May-20 04:59N 38°47' E 012°01'409 8.8
2018-May-18 06:18N 38°60' E 003°16'412.7
2018-May-18 06:00N 38°60' E 003°11'612.8
2018-May-18 05:30N 39°01' E 003°03'612.8
2018-May-18 05:00N 39°01' E 002°55'712.9
2018-May-18 04:30N 39°03' E 002°47'612.9
2018-May-18 04:00N 39°04' E 002°38'713.1
2018-May-18 03:30N 39°05' E 002°30'713.1
2018-May-18 03:00N 39°06' E 002°22'713.4
2018-May-18 02:29N 39°07' E 002°13'613.2
2018-May-18 01:59N 39°09' E 002°05'10811.9
2018-May-17 16:54N 39°26' W 000°13'4 9.6
2018-May-17 16:30N 39°26' W 000°18'1 2.9
2018-May-17 16:00N 39°27' W 000°19'0 0.0
2018-May-17 15:30N 39°27' W 000°19'0 0.0
2018-May-17 15:00N 39°27' W 000°19'0 0.0
2018-May-17 14:30N 39°27' W 000°19'0 0.0
2018-May-17 13:59N 39°27' W 000°19'0 0.0
2018-May-17 13:29N 39°27' W 000°19'0 0.0
2018-May-17 12:59N 39°27' W 000°19'0 0.0
2018-May-17 12:29N 39°27' W 000°19'0 0.0
2018-May-17 11:55N 39°27' W 000°19'0 0.0
2018-May-17 11:28N 39°27' W 000°19'0 0.0
2018-May-17 10:58N 39°27' W 000°19'0 0.0
2018-May-17 10:28N 39°27' W 000°19'0 0.0
2018-May-17 09:52N 39°27' W 000°19'0 0.0
2018-May-17 09:27N 39°27' W 000°19'0 0.0
2018-May-17 08:57N 39°27' W 000°19'0 0.0
2018-May-17 08:30N 39°27' W 000°19'0 0.0
2018-May-17 08:00N 39°27' W 000°19'  

Dump ship's entire track history